createdAt,value
2018-12-06T00:00:46.888Z,36.96
2018-12-06T00:01:55.823Z,37.15
2018-12-06T00:03:05.294Z,36.87
2018-12-06T00:04:14.471Z,37.15
2018-12-06T00:05:23.658Z,36.87
2018-12-06T00:06:33.349Z,37.13
2018-12-06T00:07:42.294Z,37.13
2018-12-06T00:08:51.962Z,37.04
2018-12-06T00:10:01.132Z,36.85
2018-12-06T00:11:10.562Z,36.85
2018-12-06T00:12:19.744Z,36.85
2018-12-06T00:13:28.909Z,36.85
2018-12-06T00:14:38.103Z,37.23
2018-12-06T00:15:47.288Z,37.04
2018-12-06T00:16:56.491Z,36.85
2018-12-06T00:18:05.663Z,37.13
2018-12-06T00:19:15.091Z,37.13
2018-12-06T00:20:24.511Z,37.13
2018-12-06T00:21:33.671Z,36.85
2018-12-06T00:22:42.861Z,36.94
2018-12-06T00:23:52.147Z,36.85
2018-12-06T00:25:00.830Z,37.04
2018-12-06T00:26:10.261Z,37.04
2018-12-06T00:27:19.925Z,37.23
2018-12-06T00:28:29.110Z,36.94
2018-12-06T00:29:38.291Z,37.13
2018-12-06T00:30:47.969Z,36.94
2018-12-06T00:31:57.430Z,37.04
2018-12-06T00:33:06.867Z,36.94
2018-12-06T00:34:16.291Z,37.13
2018-12-06T00:35:25.454Z,37.13
2018-12-06T00:36:34.905Z,36.94
2018-12-06T00:37:44.569Z,37.23
2018-12-06T00:38:53.995Z,37.23
2018-12-06T00:40:02.936Z,37.23
2018-12-06T00:41:11.894Z,37.04
2018-12-06T00:42:21.578Z,37.04
2018-12-06T00:43:30.769Z,36.94
2018-12-06T00:44:40.467Z,36.85
2018-12-06T00:45:49.898Z,37.04
2018-12-06T00:46:59.072Z,37.13
2018-12-06T00:48:08.499Z,37.23
2018-12-06T00:49:17.928Z,37.04
2018-12-06T00:50:27.364Z,37.04
2018-12-06T00:51:36.547Z,37.13
2018-12-06T00:52:45.480Z,37.04
2018-12-06T00:53:54.767Z,37.04
2018-12-06T00:55:04.200Z,36.75
2018-12-06T00:56:13.890Z,37.04
2018-12-06T00:57:23.073Z,36.85
2018-12-06T00:58:32.269Z,36.94
2018-12-06T00:59:41.714Z,37.04
2018-12-06T01:00:51.164Z,36.94
2018-12-06T01:02:00.103Z,37.02
2018-12-06T01:03:09.531Z,37.02
2018-12-06T01:04:18.712Z,36.85
2018-12-06T01:05:27.903Z,37.04
2018-12-06T01:06:37.091Z,37.02
2018-12-06T01:07:46.772Z,37.02
2018-12-06T01:08:56.201Z,36.94
2018-12-06T01:10:05.890Z,37.02
2018-12-06T01:11:15.320Z,37.04
2018-12-06T01:12:24.560Z,37.02
2018-12-06T01:13:33.497Z,37.12
2018-12-06T01:14:42.420Z,37.04
2018-12-06T01:15:51.341Z,36.94
2018-12-06T01:17:00.598Z,36.73
2018-12-06T01:18:09.758Z,36.83
2018-12-06T01:19:19.182Z,36.83
2018-12-06T01:20:28.618Z,37.02
2018-12-06T01:21:38.071Z,37.02
2018-12-06T01:22:47.507Z,37.02
2018-12-06T01:23:56.931Z,36.93
2018-12-06T01:25:06.118Z,36.93
2018-12-06T01:26:15.048Z,37.02
2018-12-06T01:27:24.485Z,37.02
2018-12-06T01:28:33.702Z,36.93
2018-12-06T01:29:42.891Z,37.02
2018-12-06T01:30:52.309Z,37.02
2018-12-06T01:32:00.986Z,36.93
2018-12-06T01:33:10.218Z,36.93
2018-12-06T01:34:19.400Z,37.12
2018-12-06T01:35:28.454Z,37.02
2018-12-06T01:36:37.390Z,37.02
2018-12-06T01:37:46.859Z,37.02
2018-12-06T01:38:56.039Z,37.02
2018-12-06T01:40:04.969Z,36.83
2018-12-06T01:41:14.671Z,37.02
2018-12-06T01:42:24.558Z,37.02
2018-12-06T01:43:34.249Z,36.93
2018-12-06T01:44:43.941Z,36.93
2018-12-06T01:45:53.117Z,36.93
2018-12-06T01:47:01.821Z,36.83
2018-12-06T01:48:10.766Z,36.93
2018-12-06T01:49:20.214Z,37.02
2018-12-06T01:50:29.897Z,36.93
2018-12-06T01:51:39.094Z,36.93
2018-12-06T01:52:48.867Z,36.93
2018-12-06T01:53:58.061Z,37.12
2018-12-06T01:55:07.503Z,36.93
2018-12-06T01:56:16.677Z,37.02
2018-12-06T01:57:26.603Z,36.93
2018-12-06T01:58:36.283Z,36.73
2018-12-06T01:59:45.479Z,37.12
2018-12-06T02:00:54.907Z,37.12
2018-12-06T02:02:04.322Z,36.83
2018-12-06T02:03:13.271Z,37.02
2018-12-06T02:04:22.958Z,36.93
2018-12-06T02:05:32.392Z,36.93
2018-12-06T02:06:42.073Z,36.93
2018-12-06T02:07:51.246Z,36.93
2018-12-06T02:09:00.423Z,37.02
2018-12-06T02:10:09.587Z,37.02
2018-12-06T02:11:18.769Z,37.02
2018-12-06T02:12:27.452Z,36.93
2018-12-06T02:13:37.121Z,37.02
2018-12-06T02:14:46.053Z,36.93
2018-12-06T02:15:55.483Z,36.93
2018-12-06T02:17:04.914Z,36.83
2018-12-06T02:18:14.864Z,36.83
2018-12-06T02:19:23.551Z,37.02
2018-12-06T02:20:33.095Z,37.02
2018-12-06T02:21:42.536Z,36.93
2018-12-06T02:22:51.968Z,37.02
2018-12-06T02:24:01.411Z,36.93
2018-12-06T02:25:11.076Z,36.93
2018-12-06T02:26:20.254Z,37.02
2018-12-06T02:27:29.444Z,36.73
2018-12-06T02:28:39.110Z,37.02
2018-12-06T02:29:49.065Z,37.02
2018-12-06T02:30:58.275Z,36.93
2018-12-06T02:32:08.230Z,36.83
2018-12-06T02:33:17.425Z,36.83
2018-12-06T02:34:27.172Z,37.21
2018-12-06T02:35:36.378Z,36.83
2018-12-06T02:36:45.820Z,37.21
2018-12-06T02:37:55.005Z,36.93
2018-12-06T02:39:05.007Z,37.1
2018-12-06T02:40:14.713Z,37.02
2018-12-06T02:41:24.160Z,37.02
2018-12-06T02:42:33.856Z,37.21
2018-12-06T02:43:43.799Z,37.12
2018-12-06T02:44:53.755Z,37.12
2018-12-06T02:46:03.515Z,36.83
2018-12-06T02:47:12.967Z,37.21
2018-12-06T02:48:22.429Z,37.02
2018-12-06T02:49:32.150Z,36.83
2018-12-06T02:50:41.442Z,36.83
2018-12-06T02:51:50.878Z,36.83
2018-12-06T02:53:00.050Z,37.21
2018-12-06T02:54:09.513Z,36.93
2018-12-06T02:55:18.703Z,37.02
2018-12-06T02:56:28.396Z,36.83
2018-12-06T02:57:38.155Z,36.83
2018-12-06T02:58:47.846Z,36.81
2018-12-06T02:59:57.290Z,37.12
2018-12-06T03:01:06.552Z,37.12
2018-12-06T03:02:15.984Z,37.12
2018-12-06T03:03:25.903Z,37.12
2018-12-06T03:04:35.374Z,37.12
2018-12-06T03:05:45.065Z,37.31
2018-12-06T03:06:54.493Z,36.83
2018-12-06T03:08:04.013Z,36.93
2018-12-06T03:09:13.441Z,36.93
2018-12-06T03:10:22.403Z,36.83
2018-12-06T03:11:31.865Z,37.12
2018-12-06T03:12:41.314Z,37.1
2018-12-06T03:13:50.752Z,37.12
2018-12-06T03:14:59.948Z,36.91
2018-12-06T03:16:08.888Z,37.02
2018-12-06T03:17:18.314Z,37.02
2018-12-06T03:18:27.261Z,36.93
2018-12-06T03:19:36.709Z,37.02
2018-12-06T03:20:46.159Z,36.91
2018-12-06T03:21:55.854Z,37.01
2018-12-06T03:23:05.289Z,37.19
2018-12-06T03:24:14.980Z,37.12
2018-12-06T03:25:24.903Z,37.12
2018-12-06T03:26:34.118Z,36.81
2018-12-06T03:27:43.306Z,37.19
2018-12-06T03:28:53.002Z,37.12
2018-12-06T03:30:02.470Z,37.29
2018-12-06T03:31:12.218Z,37.12
2018-12-06T03:32:21.958Z,37.1
2018-12-06T03:33:31.744Z,37.02
2018-12-06T03:34:41.211Z,37.31
2018-12-06T03:35:50.668Z,37.1
2018-12-06T03:37:00.348Z,37.12
2018-12-06T03:38:09.784Z,37.1
2018-12-06T03:39:18.970Z,37.1
2018-12-06T03:40:28.400Z,37.19
2018-12-06T03:41:37.838Z,37.1
2018-12-06T03:42:47.027Z,37.29
2018-12-06T03:43:56.205Z,37.12
2018-12-06T03:45:05.395Z,37.01
2018-12-06T03:46:15.081Z,37.1
2018-12-06T03:47:24.515Z,36.91
2018-12-06T03:48:34.003Z,37.01
2018-12-06T03:49:43.447Z,36.91
2018-12-06T03:50:52.391Z,37.1
2018-12-06T03:52:02.174Z,37.01
2018-12-06T03:53:11.473Z,37.01
2018-12-06T03:54:21.174Z,37.01
2018-12-06T03:55:30.870Z,36.81
2018-12-06T03:56:40.312Z,37.01
2018-12-06T03:57:49.759Z,37.1
2018-12-06T03:58:59.431Z,36.81
2018-12-06T04:00:09.106Z,37.1
2018-12-06T04:01:18.125Z,37.01
2018-12-06T04:02:27.791Z,37.01
2018-12-06T04:03:37.460Z,36.81
2018-12-06T04:04:47.194Z,36.81
2018-12-06T04:05:56.630Z,36.91
2018-12-06T04:07:06.061Z,36.91
2018-12-06T04:08:15.766Z,37.1
2018-12-06T04:09:25.194Z,36.91
2018-12-06T04:10:34.882Z,36.81
2018-12-06T04:11:44.331Z,36.81
2018-12-06T04:12:54.023Z,36.91
2018-12-06T04:14:03.243Z,36.91
2018-12-06T04:15:12.963Z,37.1
2018-12-06T04:16:22.427Z,36.91
2018-12-06T04:17:32.139Z,36.91
2018-12-06T04:18:41.076Z,36.91
2018-12-06T04:19:50.575Z,37.19
2018-12-06T04:20:59.783Z,37.01
2018-12-06T04:22:08.973Z,37.1
2018-12-06T04:23:17.659Z,37.01
2018-12-06T04:24:26.867Z,37.01
2018-12-06T04:25:36.311Z,37.01
2018-12-06T04:26:46.030Z,37.01
2018-12-06T04:27:55.494Z,37.29
2018-12-06T04:29:04.688Z,36.91
2018-12-06T04:30:13.395Z,37.19
2018-12-06T04:31:22.829Z,37.19
2018-12-06T04:32:32.298Z,37.19
2018-12-06T04:33:41.982Z,37.19
2018-12-06T04:34:51.442Z,37.19
2018-12-06T04:36:00.635Z,37.19
2018-12-06T04:37:10.117Z,37.19
2018-12-06T04:38:20.106Z,37.19
2018-12-06T04:39:29.913Z,37.19
2018-12-06T04:40:39.595Z,37.29
2018-12-06T04:41:49.412Z,37.19
2018-12-06T04:42:58.865Z,37.19
2018-12-06T04:44:08.806Z,37.19
2018-12-06T04:45:18.232Z,37.29
2018-12-06T04:46:27.919Z,37.29
2018-12-06T04:47:37.342Z,37.19
2018-12-06T04:48:47.287Z,37.29
2018-12-06T04:49:56.746Z,37.19
2018-12-06T04:51:06.190Z,37.29
2018-12-06T04:52:15.628Z,37.19
2018-12-06T04:53:25.149Z,37.19
2018-12-06T04:54:35.098Z,37.19
2018-12-06T04:55:44.297Z,37.29
2018-12-06T04:56:53.754Z,37.19
2018-12-06T04:58:03.457Z,37.19
2018-12-06T04:59:12.911Z,37.19
2018-12-06T05:00:22.350Z,37.1
2018-12-06T05:01:32.050Z,37.19
2018-12-06T05:02:41.706Z,37.29
2018-12-06T05:03:51.412Z,37.1
2018-12-06T05:05:00.587Z,37.19
2018-12-06T05:06:09.511Z,37.39
2018-12-06T05:07:19.193Z,37.19
2018-12-06T05:08:28.878Z,37.29
2018-12-06T05:09:37.861Z,37.29
2018-12-06T05:10:47.543Z,37.39
2018-12-06T05:11:57.035Z,37.19
2018-12-06T05:13:06.217Z,37.29
2018-12-06T05:14:15.401Z,37.19
2018-12-06T05:15:26.245Z,37.29
2018-12-06T05:16:36.195Z,37.29
2018-12-06T05:17:45.382Z,37.29
2018-12-06T05:18:54.316Z,37.29
2018-12-06T05:20:03.745Z,37.19
2018-12-06T05:21:12.693Z,37.29
2018-12-06T05:22:21.880Z,37.29
2018-12-06T05:23:31.294Z,37.19
2018-12-06T05:24:40.989Z,37.29
2018-12-06T05:25:50.443Z,37.19
2018-12-06T05:26:59.864Z,37.19
2018-12-06T05:28:08.795Z,37.29
2018-12-06T05:29:17.751Z,37.29
2018-12-06T05:30:27.182Z,37.39
2018-12-06T05:31:37.338Z,37.19
2018-12-06T05:32:46.007Z,37.29
2018-12-06T05:33:55.432Z,37.39
2018-12-06T05:35:04.867Z,37.48
2018-12-06T05:36:14.287Z,37.29
2018-12-06T05:37:23.716Z,37.48
2018-12-06T05:38:33.193Z,37.39
2018-12-06T05:39:42.621Z,37.39
2018-12-06T05:40:52.339Z,37.29
2018-12-06T05:42:02.041Z,37.48
2018-12-06T05:43:11.217Z,37.58
2018-12-06T05:44:20.424Z,37.48
2018-12-06T05:45:29.687Z,37.39
2018-12-06T05:46:38.613Z,37.48
2018-12-06T05:47:47.784Z,37.48
2018-12-06T05:48:56.995Z,37.39
2018-12-06T05:50:06.475Z,37.48
2018-12-06T05:51:16.509Z,37.48
2018-12-06T05:52:25.698Z,37.39
2018-12-06T05:53:35.134Z,37.48
2018-12-06T05:54:44.317Z,37.58
2018-12-06T05:55:54.023Z,37.58
2018-12-06T05:57:03.716Z,37.58
2018-12-06T05:58:13.169Z,37.58
2018-12-06T05:59:22.866Z,37.48
2018-12-06T06:00:32.552Z,37.58
2018-12-06T06:01:41.988Z,37.68
2018-12-06T06:02:51.454Z,37.58
2018-12-06T06:04:01.141Z,37.58
2018-12-06T06:05:10.585Z,37.58
2018-12-06T06:06:20.449Z,37.58
2018-12-06T06:07:29.893Z,37.58
2018-12-06T06:08:39.103Z,37.58
2018-12-06T06:09:48.530Z,37.68
2018-12-06T06:10:57.480Z,37.58
2018-12-06T06:12:07.192Z,37.68
2018-12-06T06:13:17.132Z,37.68
2018-12-06T06:14:26.591Z,37.58
2018-12-06T06:15:36.039Z,37.48
2018-12-06T06:16:45.254Z,37.48
2018-12-06T06:17:54.930Z,37.58
2018-12-06T06:19:04.132Z,37.58
2018-12-06T06:20:13.302Z,37.58
2018-12-06T06:21:22.506Z,37.48
2018-12-06T06:22:32.197Z,37.77
2018-12-06T06:23:41.392Z,37.58
2018-12-06T06:24:50.353Z,37.68
2018-12-06T06:26:00.030Z,37.68
2018-12-06T06:27:09.778Z,37.68
2018-12-06T06:28:19.210Z,37.68
2018-12-06T06:29:28.686Z,37.39
2018-12-06T06:30:38.152Z,37.48
2018-12-06T06:31:47.104Z,37.68
2018-12-06T06:32:56.306Z,37.77
2018-12-06T06:34:05.744Z,37.77
2018-12-06T06:35:15.168Z,37.87
2018-12-06T06:36:24.854Z,37.77
2018-12-06T06:37:34.040Z,37.68
2018-12-06T06:38:43.221Z,37.77
2018-12-06T06:39:52.150Z,37.68
2018-12-06T06:41:01.092Z,37.77
2018-12-06T06:42:10.021Z,37.77
2018-12-06T06:43:19.474Z,37.77
2018-12-06T06:44:28.913Z,37.77
2018-12-06T06:45:38.084Z,37.77
2018-12-06T06:46:47.505Z,37.68
2018-12-06T06:47:57.225Z,37.68
2018-12-06T06:49:13.493Z,37.96
2018-12-06T06:50:23.447Z,37.48
2018-12-06T06:51:32.629Z,37.48
2018-12-06T06:52:41.820Z,37.87
2018-12-06T06:53:53.076Z,37.68
2018-12-06T06:55:02.259Z,37.77
2018-12-06T06:56:11.450Z,37.87
2018-12-06T06:57:20.654Z,37.68
2018-12-06T06:58:30.086Z,37.68
2018-12-06T06:59:39.541Z,37.77
2018-12-06T07:00:48.974Z,37.68
2018-12-06T07:01:58.948Z,37.58
2018-12-06T07:03:08.143Z,37.68
2018-12-06T07:04:17.324Z,37.68
2018-12-06T07:05:26.257Z,37.68
2018-12-06T07:06:35.921Z,37.68
2018-12-06T07:07:45.097Z,37.68
2018-12-06T07:08:54.036Z,37.77
2018-12-06T07:10:03.227Z,37.77
2018-12-06T07:11:13.004Z,37.77
2018-12-06T07:12:22.197Z,37.58
2018-12-06T07:13:31.142Z,37.68
2018-12-06T07:14:40.556Z,37.77
2018-12-06T07:15:50.236Z,37.68
2018-12-06T07:16:59.725Z,37.77
2018-12-06T07:18:08.909Z,37.68
2018-12-06T07:19:18.622Z,37.77
2018-12-06T07:20:28.319Z,37.87
2018-12-06T07:21:37.519Z,37.96
2018-12-06T07:22:47.183Z,37.68
2018-12-06T07:23:56.376Z,37.77
2018-12-06T07:25:05.820Z,37.68
2018-12-06T07:26:14.532Z,37.68
2018-12-06T07:27:23.985Z,37.68
2018-12-06T07:28:33.410Z,37.68
2018-12-06T07:29:43.098Z,37.68
2018-12-06T07:30:53.597Z,37.68
2018-12-06T07:32:03.030Z,37.87
2018-12-06T07:33:12.222Z,37.77
2018-12-06T07:34:21.428Z,37.77
2018-12-06T07:35:32.148Z,37.58
2018-12-06T07:36:41.696Z,37.77
2018-12-06T07:37:50.866Z,37.58
2018-12-06T07:39:00.797Z,37.77
2018-12-06T07:40:10.345Z,37.68
2018-12-06T07:41:19.526Z,37.87
2018-12-06T07:42:28.953Z,37.68
2018-12-06T07:43:38.331Z,37.58
2018-12-06T07:44:47.522Z,37.66
2018-12-06T07:45:57.470Z,37.68
2018-12-06T07:47:06.669Z,37.87
2018-12-06T07:48:15.868Z,37.48
2018-12-06T07:49:25.316Z,37.68
2018-12-06T07:50:34.530Z,37.87
2018-12-06T07:51:44.459Z,37.77
2018-12-06T07:52:54.159Z,37.77
2018-12-06T07:54:02.833Z,37.68
2018-12-06T07:55:12.264Z,37.77
2018-12-06T07:56:21.206Z,37.77
2018-12-06T07:57:31.360Z,37.68
2018-12-06T07:58:40.797Z,37.77
2018-12-06T07:59:50.259Z,37.58
2018-12-06T08:00:59.482Z,37.68
2018-12-06T08:02:08.682Z,37.77
2018-12-06T08:03:18.397Z,37.77
2018-12-06T08:04:27.666Z,37.77
2018-12-06T08:05:36.658Z,37.68
2018-12-06T08:06:45.833Z,37.77
2018-12-06T08:07:55.044Z,37.77
2018-12-06T08:09:04.538Z,37.68
2018-12-06T08:10:13.986Z,37.68
2018-12-06T08:11:22.998Z,37.68
2018-12-06T08:12:32.431Z,37.77
2018-12-06T08:13:41.384Z,37.77
2018-12-06T08:14:50.587Z,37.77
2018-12-06T08:15:59.795Z,37.68
2018-12-06T08:17:08.746Z,37.58
2018-12-06T08:18:17.959Z,37.68
2018-12-06T08:19:27.419Z,37.68
2018-12-06T08:20:36.914Z,37.77
2018-12-06T08:21:46.099Z,37.77
2018-12-06T08:22:55.287Z,37.58
2018-12-06T08:24:04.988Z,37.68
2018-12-06T08:25:16.338Z,37.68
2018-12-06T08:26:25.673Z,37.77
2018-12-06T08:27:34.621Z,37.68
2018-12-06T08:28:44.319Z,37.68
2018-12-06T08:29:53.767Z,37.58
2018-12-06T08:31:03.467Z,37.58
2018-12-06T08:32:12.960Z,37.68
2018-12-06T08:33:22.659Z,37.87
2018-12-06T08:34:32.116Z,37.68
2018-12-06T08:35:41.060Z,37.68
2018-12-06T08:36:49.743Z,37.68
2018-12-06T08:37:58.681Z,37.68
2018-12-06T08:39:07.394Z,37.68
2018-12-06T08:40:16.848Z,37.68
2018-12-06T08:41:25.796Z,37.77
2018-12-06T08:42:35.281Z,37.58
2018-12-06T08:43:52.681Z,37.68
2018-12-06T08:45:02.115Z,37.68
2018-12-06T08:46:11.294Z,37.68
2018-12-06T08:47:20.498Z,37.58
2018-12-06T08:48:29.467Z,37.58
2018-12-06T08:49:38.663Z,37.58
2018-12-06T08:50:48.537Z,37.68
2018-12-06T08:51:57.723Z,37.68
2018-12-06T08:53:07.157Z,37.58
2018-12-06T08:54:16.610Z,37.68
2018-12-06T08:55:26.057Z,37.68
2018-12-06T08:56:35.290Z,37.68
2018-12-06T08:57:45.013Z,37.87
2018-12-06T08:58:54.206Z,37.77
2018-12-06T09:00:03.655Z,37.68
2018-12-06T09:01:12.844Z,37.68
2018-12-06T09:02:22.280Z,37.68
2018-12-06T09:03:31.461Z,37.77
2018-12-06T09:04:41.143Z,37.77
2018-12-06T09:05:50.571Z,37.68
2018-12-06T09:07:00.008Z,37.68
2018-12-06T09:08:09.698Z,37.68
2018-12-06T09:09:19.375Z,37.68
2018-12-06T09:10:28.824Z,37.87
2018-12-06T09:11:38.250Z,37.87
2018-12-06T09:12:47.701Z,37.77
2018-12-06T09:13:57.128Z,37.87
2018-12-06T09:15:06.593Z,37.68
2018-12-06T09:16:16.409Z,37.77
2018-12-06T09:17:25.927Z,37.87
2018-12-06T09:18:35.356Z,37.87
2018-12-06T09:19:44.832Z,37.77
2018-12-06T09:20:54.037Z,37.68
2018-12-06T09:22:03.736Z,37.87
2018-12-06T09:23:12.922Z,37.87
2018-12-06T09:24:22.381Z,37.87
2018-12-06T09:25:31.051Z,37.68
2018-12-06T09:26:40.544Z,37.68
2018-12-06T09:27:49.493Z,37.96
2018-12-06T09:28:58.253Z,37.77
2018-12-06T09:30:07.192Z,37.77
2018-12-06T09:31:16.623Z,37.77
2018-12-06T09:32:25.862Z,37.87
2018-12-06T09:33:35.553Z,37.96
2018-12-06T09:34:44.746Z,37.87
2018-12-06T09:35:53.937Z,37.87
2018-12-06T09:37:03.149Z,37.68
2018-12-06T09:38:12.347Z,37.68
2018-12-06T09:39:21.567Z,37.87
2018-12-06T09:40:30.765Z,37.96
2018-12-06T09:41:40.463Z,37.77
2018-12-06T09:42:49.979Z,37.77
2018-12-06T09:43:59.659Z,37.96
2018-12-06T09:45:08.856Z,37.96
2018-12-06T09:46:18.065Z,37.96
2018-12-06T09:47:27.495Z,37.87
2018-12-06T09:48:36.457Z,37.87
2018-12-06T09:49:46.158Z,37.87
2018-12-06T09:50:55.962Z,37.77
2018-12-06T09:52:05.630Z,37.87
2018-12-06T09:53:14.316Z,37.96
2018-12-06T09:54:23.749Z,37.77
2018-12-06T09:55:33.193Z,37.68
2018-12-06T09:56:41.874Z,37.96
2018-12-06T09:57:51.816Z,37.87
2018-12-06T09:59:00.744Z,37.77
2018-12-06T10:00:09.936Z,37.68
2018-12-06T10:01:18.690Z,38.06
2018-12-06T10:02:28.134Z,37.87
2018-12-06T10:03:37.069Z,37.87
2018-12-06T10:04:46.014Z,37.77
2018-12-06T10:05:55.294Z,37.77
2018-12-06T10:07:04.759Z,37.77
2018-12-06T10:08:14.454Z,37.77
2018-12-06T10:09:23.652Z,38.06
2018-12-06T10:10:33.326Z,37.87
2018-12-06T10:11:42.523Z,37.87
2018-12-06T10:12:51.471Z,37.87
2018-12-06T10:14:01.158Z,37.96
2018-12-06T10:15:10.588Z,37.96
2018-12-06T10:16:20.284Z,37.96
2018-12-06T10:17:29.781Z,37.96
2018-12-06T10:18:39.241Z,37.96
2018-12-06T10:19:48.927Z,38.06
2018-12-06T10:20:58.360Z,37.96
2018-12-06T10:22:08.325Z,38.06
2018-12-06T10:23:17.539Z,37.96
2018-12-06T10:24:27.226Z,38.06
2018-12-06T10:25:36.920Z,38.16
2018-12-06T10:26:46.631Z,37.96
2018-12-06T10:27:55.572Z,37.96
2018-12-06T10:29:05.270Z,37.96
2018-12-06T10:30:14.257Z,37.96
2018-12-06T10:31:23.687Z,38.06
2018-12-06T10:32:32.886Z,37.87
2018-12-06T10:33:42.069Z,37.96
2018-12-06T10:34:55.919Z,38.26
2018-12-06T10:36:05.365Z,38.06
2018-12-06T10:37:14.818Z,38.06
2018-12-06T10:38:24.005Z,38.26
2018-12-06T10:39:33.194Z,38.06
2018-12-06T10:40:42.382Z,37.96
2018-12-06T10:41:51.559Z,38.06
2018-12-06T10:43:01.515Z,38.06
2018-12-06T10:44:11.188Z,37.96
2018-12-06T10:45:20.621Z,38.06
2018-12-06T10:46:30.079Z,38.06
2018-12-06T10:47:39.801Z,37.96
2018-12-06T10:48:48.990Z,38.06
2018-12-06T10:49:58.669Z,38.06
2018-12-06T10:51:10.055Z,38.06
2018-12-06T10:52:19.254Z,38.06
2018-12-06T10:53:28.933Z,38.06
2018-12-06T10:54:38.220Z,38.06
2018-12-06T10:55:47.402Z,37.96
2018-12-06T10:56:56.835Z,38.26
2018-12-06T10:58:06.268Z,37.96
2018-12-06T10:59:15.689Z,38.16
2018-12-06T11:00:24.377Z,38.16
2018-12-06T11:01:34.084Z,38.26
2018-12-06T11:02:43.788Z,38.16
2018-12-06T11:03:53.242Z,38.06
2018-12-06T11:05:02.183Z,38.06
2018-12-06T11:06:11.624Z,38.06
2018-12-06T11:07:21.327Z,38.16
2018-12-06T11:08:30.279Z,38.06
2018-12-06T11:09:39.984Z,38.06
2018-12-06T11:10:49.659Z,38.16
2018-12-06T11:11:59.357Z,38.16
2018-12-06T11:13:08.552Z,38.26
2018-12-06T11:14:17.994Z,37.96
2018-12-06T11:15:27.697Z,38.16
2018-12-06T11:16:37.413Z,38.06
2018-12-06T11:17:47.341Z,38.16
2018-12-06T11:18:56.785Z,38.16
2018-12-06T11:20:06.218Z,38.16
2018-12-06T11:21:15.399Z,38.16
2018-12-06T11:22:25.358Z,38.06
2018-12-06T11:23:34.793Z,38.16
2018-12-06T11:24:44.507Z,38.26
2018-12-06T11:25:53.710Z,38.35
2018-12-06T11:27:03.391Z,38.06
2018-12-06T11:28:12.580Z,38.06
2018-12-06T11:29:21.793Z,38.06
2018-12-06T11:30:31.495Z,38.26
2018-12-06T11:31:40.706Z,38.16
2018-12-06T11:32:49.899Z,38.16
2018-12-06T11:33:59.317Z,38.26
2018-12-06T11:35:08.747Z,38.06
2018-12-06T11:36:18.419Z,38.06
2018-12-06T11:37:28.097Z,38.26
2018-12-06T11:38:37.538Z,38.06
2018-12-06T11:39:46.971Z,38.54
2018-12-06T11:40:56.719Z,38.26
2018-12-06T11:42:06.157Z,38.26
2018-12-06T11:43:15.613Z,38.64
2018-12-06T11:44:25.071Z,38.35
2018-12-06T11:45:34.606Z,38.16
2018-12-06T11:46:43.694Z,38.35
2018-12-06T11:47:53.372Z,38.35
2018-12-06T11:49:03.413Z,38.26
2018-12-06T11:50:12.591Z,38.35
2018-12-06T11:51:22.311Z,38.35
2018-12-06T11:52:31.502Z,38.35
2018-12-06T11:53:41.218Z,38.64
2018-12-06T11:54:50.407Z,38.26
2018-12-06T11:55:59.347Z,38.64
2018-12-06T11:57:08.539Z,38.35
2018-12-06T11:58:18.482Z,38.54
2018-12-06T11:59:27.682Z,38.35
2018-12-06T12:00:37.126Z,38.54
2018-12-06T12:01:46.054Z,38.35
2018-12-06T12:02:55.053Z,38.35
2018-12-06T12:04:04.237Z,38.26
2018-12-06T12:05:13.679Z,38.35
2018-12-06T12:06:22.886Z,38.26
2018-12-06T12:07:32.102Z,38.35
2018-12-06T12:08:41.563Z,38.35
2018-12-06T12:09:50.508Z,38.35
2018-12-06T12:11:00.463Z,38.54
2018-12-06T12:12:09.898Z,38.54
2018-12-06T12:13:19.571Z,38.54
2018-12-06T12:14:29.271Z,38.35
2018-12-06T12:15:38.210Z,38.26
2018-12-06T12:16:47.684Z,38.54
2018-12-06T12:17:57.128Z,38.45
2018-12-06T12:19:06.314Z,38.45
2018-12-06T12:20:15.752Z,38.54
2018-12-06T12:21:24.437Z,38.54
2018-12-06T12:22:33.622Z,38.45
2018-12-06T12:23:43.086Z,38.35
2018-12-06T12:24:52.551Z,38.54
2018-12-06T12:26:01.720Z,38.35
2018-12-06T12:27:11.158Z,38.35
2018-12-06T12:28:20.863Z,38.35
2018-12-06T12:29:29.778Z,38.45
2018-12-06T12:30:39.728Z,38.45
2018-12-06T12:31:49.183Z,38.26
2018-12-06T12:32:58.878Z,38.35
2018-12-06T12:34:08.335Z,38.45
2018-12-06T12:35:18.788Z,38.45
2018-12-06T12:36:28.629Z,38.35
2018-12-06T12:37:37.810Z,38.45
2018-12-06T12:38:46.502Z,38.54
2018-12-06T12:39:55.721Z,38.35
2018-12-06T12:41:05.172Z,38.54
2018-12-06T12:42:14.618Z,38.35
2018-12-06T12:43:23.811Z,38.35
2018-12-06T12:44:32.982Z,38.35
2018-12-06T12:45:42.427Z,38.45
2018-12-06T12:46:51.618Z,38.35
2018-12-06T12:48:00.807Z,38.26
2018-12-06T12:49:10.024Z,38.45
2018-12-06T12:50:18.721Z,38.35
2018-12-06T12:51:28.422Z,38.35
2018-12-06T12:52:37.359Z,38.35
2018-12-06T12:53:47.362Z,38.35
2018-12-06T12:54:57.046Z,38.26
2018-12-06T12:56:06.240Z,38.16
2018-12-06T12:57:15.694Z,38.45
2018-12-06T12:58:25.321Z,38.45
2018-12-06T12:59:34.340Z,38.26
2018-12-06T13:00:43.350Z,38.26
2018-12-06T13:01:52.556Z,38.26
2018-12-06T13:03:02.026Z,38.26
2018-12-06T13:04:11.471Z,38.35
2018-12-06T13:05:20.933Z,38.45
2018-12-06T13:06:30.386Z,38.35
2018-12-06T13:07:39.602Z,38.26
2018-12-06T13:08:49.064Z,38.35
2018-12-06T13:09:58.767Z,38.26
2018-12-06T13:11:07.947Z,38.16
2018-12-06T13:12:17.678Z,38.45
2018-12-06T13:13:27.157Z,38.26
2018-12-06T13:14:36.842Z,38.16
2018-12-06T13:15:46.300Z,38.26
2018-12-06T13:16:55.496Z,38.16
2018-12-06T13:18:04.447Z,38.35
2018-12-06T13:19:13.909Z,38.26
2018-12-06T13:20:23.603Z,38.35
2018-12-06T13:21:33.072Z,38.26
2018-12-06T13:22:42.508Z,38.26
2018-12-06T13:23:51.721Z,38.45
2018-12-06T13:25:00.414Z,38.35
2018-12-06T13:26:10.100Z,38.16
2018-12-06T13:27:19.537Z,38.26
2018-12-06T13:28:28.998Z,38.35
2018-12-06T13:29:38.655Z,38.45
2018-12-06T13:30:48.144Z,38.26
2018-12-06T13:31:57.842Z,38.26
2018-12-06T13:33:07.548Z,38.26
2018-12-06T13:34:17.519Z,38.35
2018-12-06T13:35:27.492Z,38.26
2018-12-06T13:36:36.933Z,38.26
2018-12-06T13:37:46.694Z,38.26
2018-12-06T13:38:56.126Z,38.26
2018-12-06T13:40:06.148Z,38.35
2018-12-06T13:41:15.569Z,38.26
2018-12-06T13:42:26.187Z,38.26
2018-12-06T13:43:35.873Z,38.35
2018-12-06T13:44:45.065Z,38.26
2018-12-06T13:45:54.054Z,38.26
2018-12-06T13:47:03.244Z,38.26
2018-12-06T13:48:12.713Z,38.35
2018-12-06T13:49:22.267Z,38.16
2018-12-06T13:50:31.983Z,38.26
2018-12-06T13:51:41.473Z,38.26
2018-12-06T13:52:50.785Z,38.16
2018-12-06T13:53:59.963Z,38.26
2018-12-06T13:55:09.668Z,38.26
2018-12-06T13:56:19.099Z,38.16
2018-12-06T13:57:28.600Z,38.16
2018-12-06T13:58:37.318Z,38.16
2018-12-06T13:59:46.548Z,38.26
2018-12-06T14:00:56.506Z,38.26
2018-12-06T14:02:07.924Z,38.26
2018-12-06T14:03:17.620Z,38.26
2018-12-06T14:04:28.432Z,38.26
2018-12-06T14:05:38.178Z,38.26
2018-12-06T14:06:47.399Z,38.26
2018-12-06T14:07:56.859Z,38.06
2018-12-06T14:09:06.078Z,38.16
2018-12-06T14:10:15.545Z,38.26
2018-12-06T14:11:24.984Z,38.35
2018-12-06T14:12:34.439Z,38.35
2018-12-06T14:13:43.666Z,38.16
2018-12-06T14:14:52.619Z,38.26
2018-12-06T14:16:07.076Z,38.16
2018-12-06T14:17:19.541Z,38.16
2018-12-06T14:18:28.482Z,38.16
2018-12-06T14:19:37.707Z,38.16
2018-12-06T14:20:46.921Z,38.26
2018-12-06T14:21:56.601Z,38.26
2018-12-06T14:23:06.045Z,38.26
2018-12-06T14:24:15.255Z,38.16
2018-12-06T14:25:24.718Z,38.26
2018-12-06T14:26:34.625Z,38.35
2018-12-06T14:27:43.806Z,38.16
2018-12-06T14:28:52.987Z,38.16
2018-12-06T14:30:02.661Z,38.26
2018-12-06T14:31:11.879Z,38.16
2018-12-06T14:32:20.822Z,38.26
2018-12-06T14:33:30.773Z,38.26
2018-12-06T14:34:39.958Z,38.06
2018-12-06T14:35:49.439Z,38.26
2018-12-06T14:37:04.448Z,38.35
2018-12-06T14:38:13.384Z,38.26
2018-12-06T14:39:23.095Z,38.06
2018-12-06T14:40:32.531Z,38.35
2018-12-06T14:41:41.984Z,38.35
2018-12-06T14:42:51.443Z,38.45
2018-12-06T14:44:00.651Z,38.26
2018-12-06T14:45:10.089Z,38.35
2018-12-06T14:46:21.657Z,38.35
2018-12-06T14:47:31.360Z,38.35
2018-12-06T14:48:40.780Z,38.35
2018-12-06T14:49:49.997Z,38.35
2018-12-06T14:50:59.705Z,38.35
2018-12-06T14:52:09.177Z,38.06
2018-12-06T14:53:18.615Z,38.06
2018-12-06T14:54:28.286Z,38.45
2018-12-06T14:55:37.472Z,38.06